createdAt,value
2018-04-19T00:04:47.238Z,99453.89
2018-04-19T00:07:15.513Z,99454.41
2018-04-19T00:09:43.790Z,99451.05
2018-04-19T00:12:12.106Z,99455.81
2018-04-19T00:14:40.396Z,99462.66
2018-04-19T00:17:08.684Z,99457.83
2018-04-19T00:19:36.964Z,99460.79
2018-04-19T00:22:05.236Z,99456.55
2018-04-19T00:24:33.525Z,99458.91
2018-04-19T00:27:01.800Z,99452.06
2018-04-19T00:29:30.105Z,99449.30
2018-04-19T00:31:58.381Z,99448.73
2018-04-19T00:34:26.727Z,99444.55
2018-04-19T00:36:54.989Z,99447.30
2018-04-19T00:39:23.294Z,99445.77
2018-04-19T00:41:51.566Z,99446.83
2018-04-19T00:44:19.852Z,99440.51
2018-04-19T00:46:48.145Z,99442.73
2018-04-19T00:49:16.450Z,99441.88
2018-04-19T00:51:45.497Z,99443.93
2018-04-19T00:54:13.794Z,99444.48
2018-04-19T00:56:42.376Z,99449.73
2018-04-19T00:59:10.680Z,99447.72
2018-04-19T01:01:39.728Z,99452.48
2018-04-19T01:04:08.044Z,99448.20
2018-04-19T01:06:36.310Z,99448.41
2018-04-19T01:09:04.596Z,99450.33
2018-04-19T01:11:33.624Z,99438.42
2018-04-19T01:14:01.888Z,99440.94
2018-04-19T01:16:30.235Z,99434.31
2018-04-19T01:18:59.292Z,99430.98
2018-04-19T01:21:27.576Z,99434.83
2018-04-19T01:23:55.844Z,99427.94
2018-04-19T01:26:24.141Z,99433.38
2018-04-19T01:28:52.423Z,99430.02
2018-04-19T01:31:20.718Z,99438.16
2018-04-19T01:33:48.980Z,99428.84
2018-04-19T01:36:26.054Z,99430.50
2018-04-19T01:38:54.327Z,99434.72
2018-04-19T01:41:22.642Z,99436.38
2018-04-19T01:43:51.677Z,99446.86
2018-04-19T01:46:19.962Z,99442.84
2018-04-19T01:48:48.251Z,99443.75
2018-04-19T01:51:16.543Z,99442.41
2018-04-19T01:53:44.819Z,99446.64
2018-04-19T01:56:13.099Z,99447.54
2018-04-19T01:58:41.376Z,99445.47
2018-04-19T02:01:09.672Z,99443.81
2018-04-19T02:03:38.796Z,99435.19
2018-04-19T02:06:07.096Z,99446.80
2018-04-19T02:08:35.375Z,99448.41
2018-04-19T02:11:03.660Z,99441.08
2018-04-19T02:13:31.943Z,99440.48
2018-04-19T02:16:00.219Z,99444.75
2018-04-19T02:18:28.496Z,99440.71
2018-04-19T02:20:56.844Z,99440.23
2018-04-19T02:23:25.128Z,99437.91
2018-04-19T02:25:53.440Z,99437.57
2018-04-19T02:28:21.713Z,99432.70
2018-04-19T02:30:49.994Z,99434.23
2018-04-19T02:33:18.279Z,99430.39
2018-04-19T02:35:47.335Z,99430.66
2018-04-19T02:38:15.625Z,99425.86
2018-04-19T02:40:43.894Z,99421.91
2018-04-19T02:43:12.180Z,99423.63
2018-04-19T02:45:40.462Z,99420.93
2018-04-19T02:48:08.801Z,99419.95
2018-04-19T02:50:37.086Z,99420.00
2018-04-19T02:53:05.376Z,99414.17
2018-04-19T02:55:34.468Z,99415.19
2018-04-19T02:58:02.771Z,99411.34
2018-04-19T03:00:31.049Z,99420.32
2018-04-19T03:03:00.134Z,99417.22
2018-04-19T03:05:28.401Z,99419.84
2018-04-19T03:07:56.723Z,99415.98
2018-04-19T03:10:25.024Z,99414.02
2018-04-19T03:12:53.304Z,99417.89
2018-04-19T03:15:21.592Z,99410.37
2018-04-19T03:17:49.844Z,99407.89
2018-04-19T03:20:18.134Z,99403.71
2018-04-19T03:22:46.396Z,99392.67
2018-04-19T03:25:14.680Z,99398.47
2018-04-19T03:27:42.995Z,99397.30
2018-04-19T03:30:11.295Z,99385.27
2018-04-19T03:32:40.317Z,99393.63
2018-04-19T03:35:08.593Z,99393.63
2018-04-19T03:37:36.853Z,99390.34
2018-04-19T03:40:05.938Z,99383.50
2018-04-19T03:42:34.964Z,99394.95
2018-04-19T03:45:03.232Z,99389.00
2018-04-19T03:47:31.513Z,99388.69
2018-04-19T03:49:59.786Z,99384.52
2018-04-19T03:52:28.056Z,99387.92
2018-04-19T03:54:56.328Z,99381.16
2018-04-19T03:57:24.597Z,99386.70
2018-04-19T03:59:53.658Z,99386.80
2018-04-19T04:02:21.939Z,99383.48
2018-04-19T04:04:50.257Z,99388.59
2018-04-19T04:07:18.547Z,99385.89
2018-04-19T04:09:46.805Z,99385.44
2018-04-19T04:12:15.072Z,99389.55
2018-04-19T04:14:44.147Z,99388.36
2018-04-19T04:17:30.266Z,99389.34
2018-04-19T04:20:17.059Z,99384.11
2018-04-19T04:23:03.788Z,99390.11
2018-04-19T04:25:32.185Z,99391.80
2018-04-19T04:28:00.476Z,99383.85
2018-04-19T04:30:28.758Z,99389.14
2018-04-19T04:32:57.885Z,99388.84
2018-04-19T04:35:26.171Z,99390.58
2018-04-19T04:37:55.213Z,99395.82
2018-04-19T04:40:23.479Z,99388.50
2018-04-19T04:42:51.761Z,99390.04
2018-04-19T04:45:20.032Z,99395.34
2018-04-19T04:47:48.347Z,99392.46
2018-04-19T04:50:16.616Z,99393.32
2018-04-19T04:52:44.881Z,99393.47
2018-04-19T04:55:13.160Z,99391.44
2018-04-19T04:57:41.475Z,99393.30
2018-04-19T05:00:10.568Z,99392.55
2018-04-19T05:02:38.815Z,99392.53
2018-04-19T05:05:07.860Z,99396.19
2018-04-19T05:07:36.140Z,99395.39
2018-04-19T05:10:04.426Z,99390.63
2018-04-19T05:12:32.680Z,99392.97
2018-04-19T05:15:01.736Z,99383.67
2018-04-19T05:17:30.043Z,99388.50
2018-04-19T05:19:59.119Z,99382.65
2018-04-19T05:22:27.376Z,99387.49
2018-04-19T05:24:55.649Z,99387.75
2018-04-19T05:27:23.928Z,99391.39
2018-04-19T05:29:52.224Z,99393.22
2018-04-19T05:32:20.528Z,99392.73
2018-04-19T05:34:49.566Z,99393.58
2018-04-19T05:37:17.848Z,99394.94
2018-04-19T05:39:46.125Z,99399.63
2018-04-19T05:42:14.416Z,99398.59
2018-04-19T05:44:42.701Z,99396.63
2018-04-19T05:47:10.985Z,99394.27
2018-04-19T05:49:39.344Z,99391.95
2018-04-19T05:52:07.612Z,99390.91
2018-04-19T05:54:35.899Z,99398.38
2018-04-19T05:57:04.168Z,99398.98
2018-04-19T05:59:32.460Z,99400.52
2018-04-19T06:02:00.744Z,99395.53
2018-04-19T06:04:29.083Z,99400.79
2018-04-19T06:06:57.420Z,99396.89
2018-04-19T06:09:26.475Z,99399.11
2018-04-19T06:11:54.744Z,99391.54
2018-04-19T06:14:23.024Z,99405.28
2018-04-19T06:16:52.065Z,99399.81
2018-04-19T06:19:21.127Z,99391.27
2018-04-19T06:21:49.412Z,99390.11
2018-04-19T06:24:17.691Z,99392.79
2018-04-19T06:26:45.981Z,99393.73
2018-04-19T06:29:15.029Z,99389.51
2018-04-19T06:31:43.312Z,99386.95
2018-04-19T06:34:11.589Z,99389.24
2018-04-19T06:36:39.876Z,99383.75
2018-04-19T06:39:08.170Z,99391.95
2018-04-19T06:41:36.480Z,99389.42
2018-04-19T06:44:04.760Z,99395.90
2018-04-19T06:46:33.016Z,99391.64
2018-04-19T06:49:02.078Z,99394.22
2018-04-19T06:51:30.348Z,99393.44
2018-04-19T06:53:58.662Z,99389.15
2018-04-19T06:56:27.707Z,99388.74
2018-04-19T06:58:56.007Z,99384.92
2018-04-19T07:01:24.268Z,99379.31
2018-04-19T07:03:52.573Z,99385.75
2018-04-19T07:06:21.628Z,99380.55
2018-04-19T07:08:49.915Z,99380.53
2018-04-19T07:11:18.205Z,99385.66
2018-04-19T07:13:46.482Z,99378.73
2018-04-19T07:16:14.764Z,99385.66
2018-04-19T07:18:43.038Z,99392.92
2018-04-19T07:21:11.324Z,99390.77
2018-04-19T07:23:39.601Z,99383.85
2018-04-19T07:26:07.887Z,99386.78
2018-04-19T07:28:36.924Z,99388.44
2018-04-19T07:31:05.201Z,99388.48
2018-04-19T07:33:33.488Z,99378.93
2018-04-19T07:36:01.799Z,99379.70
2018-04-19T07:38:30.095Z,99380.86
2018-04-19T07:40:59.119Z,99378.15
2018-04-19T07:43:27.447Z,99366.77
2018-04-19T07:45:55.755Z,99374.42
2018-04-19T07:48:24.068Z,99375.55
2018-04-19T07:50:53.120Z,99371.48
2018-04-19T07:53:23.429Z,99370.37
2018-04-19T07:55:52.465Z,99371.47
2018-04-19T07:58:20.754Z,99373.45
2018-04-19T08:00:49.021Z,99368.91
2018-04-19T08:03:17.301Z,99372.03
2018-04-19T08:05:45.571Z,99373.47
2018-04-19T08:08:13.835Z,99380.55
2018-04-19T08:10:42.127Z,99379.33
2018-04-19T08:13:10.487Z,99374.17
2018-04-19T08:15:38.772Z,99372.88
2018-04-19T08:18:07.046Z,99372.08
2018-04-19T08:20:35.327Z,99369.11
2018-04-19T08:23:03.632Z,99370.41
2018-04-19T08:25:31.948Z,99368.13
2018-04-19T08:28:00.985Z,99373.81
2018-04-19T08:30:29.270Z,99364.65
2018-04-19T08:32:57.549Z,99365.98
2018-04-19T08:35:25.852Z,99365.02
2018-04-19T08:37:54.124Z,99364.30
2018-04-19T08:40:22.396Z,99363.91
2018-04-19T08:42:50.677Z,99368.19
2018-04-19T08:45:19.752Z,99362.25
2018-04-19T08:47:48.047Z,99360.55
2018-04-19T08:50:16.368Z,99357.22
2018-04-19T08:52:44.621Z,99366.09
2018-04-19T08:55:13.649Z,99357.20
2018-04-19T08:57:41.936Z,99358.86
2018-04-19T09:00:10.267Z,99359.86
2018-04-19T09:02:39.303Z,99356.34
2018-04-19T09:05:07.597Z,99361.73
2018-04-19T09:07:35.864Z,99354.59
2018-04-19T09:10:04.151Z,99356.56
2018-04-19T09:12:32.416Z,99355.34
2018-04-19T09:15:00.708Z,99354.39
2018-04-19T09:17:29.007Z,99347.92
2018-04-19T09:19:57.320Z,99350.16
2018-04-19T09:22:25.588Z,99345.48
2018-04-19T09:24:53.872Z,99348.05
2018-04-19T09:27:22.172Z,99351.86
2018-04-19T09:29:50.488Z,99344.79
2018-04-19T09:32:18.788Z,99345.48
2018-04-19T09:34:47.826Z,99338.94
2018-04-19T09:37:16.101Z,99338.72
2018-04-19T09:39:44.369Z,99337.77
2018-04-19T09:42:12.732Z,99332.59
2018-04-19T09:44:41.004Z,99328.45
2018-04-19T09:47:09.259Z,99334.96
2018-04-19T09:49:38.316Z,99326.14
2018-04-19T09:52:06.592Z,99322.13
2018-04-19T09:54:34.882Z,99322.08
2018-04-19T09:57:03.159Z,99319.81
2018-04-19T09:59:31.439Z,99320.19
2018-04-19T10:02:04.683Z,99321.82
2018-04-19T10:04:33.911Z,99316.08
2018-04-19T10:07:02.182Z,99315.55
2018-04-19T10:09:30.477Z,99312.41
2018-04-19T10:11:58.786Z,99312.05
2018-04-19T10:14:27.043Z,99308.06
2018-04-19T10:16:55.312Z,99306.22
2018-04-19T10:19:23.588Z,99299.98
2018-04-19T10:21:51.871Z,99306.81
2018-04-19T10:24:20.141Z,99304.07
2018-04-19T10:26:48.437Z,99300.27
2018-04-19T10:29:17.502Z,99305.06
2018-04-19T10:31:45.792Z,99292.13
2018-04-19T10:34:14.065Z,99297.79
2018-04-19T10:36:42.361Z,99300.80
2018-04-19T10:39:11.402Z,99292.39
2018-04-19T10:41:39.666Z,99289.92
2018-04-19T10:44:07.960Z,99284.37
2018-04-19T10:46:36.322Z,99291.34
2018-04-19T10:49:04.622Z,99281.81
2018-04-19T10:51:32.893Z,99273.66
2018-04-19T10:54:01.183Z,99272.80
2018-04-19T10:56:29.464Z,99269.84
2018-04-19T10:58:57.757Z,99266.61
2018-04-19T11:01:26.025Z,99261.36
2018-04-19T11:03:54.295Z,99262.03
2018-04-19T11:06:23.365Z,99263.70
2018-04-19T11:08:51.651Z,99260.98
2018-04-19T11:11:20.065Z,99258.66
2018-04-19T11:13:49.125Z,99261.98
2018-04-19T11:16:17.403Z,99258.02
2018-04-19T11:18:45.685Z,99257.98
2018-04-19T11:21:13.975Z,99252.20
2018-04-19T11:23:42.238Z,99253.00
2018-04-19T11:26:10.528Z,99246.22
2018-04-19T11:28:38.811Z,99246.95
2018-04-19T11:31:07.859Z,99242.81
2018-04-19T11:33:36.148Z,99239.86
2018-04-19T11:36:04.420Z,99235.34
2018-04-19T11:38:32.700Z,99233.29
2018-04-19T11:41:01.104Z,99231.61
2018-04-19T11:43:29.398Z,99232.25
2018-04-19T11:45:58.445Z,99228.27
2018-04-19T11:48:27.397Z,99223.87
2018-04-19T11:50:56.439Z,99224.61
2018-04-19T11:53:24.747Z,99220.93
2018-04-19T11:55:53.808Z,99225.34
2018-04-19T11:58:22.116Z,99224.05
2018-04-19T12:00:50.401Z,99220.03
2018-04-19T12:03:19.435Z,99221.23
2018-04-19T12:05:47.725Z,99222.00
2018-04-19T12:08:16.000Z,99215.01
2018-04-19T12:10:44.287Z,99211.69
2018-04-19T12:13:12.564Z,99215.72
2018-04-19T12:15:40.837Z,99211.39
2018-04-19T12:18:09.115Z,99208.06
2018-04-19T12:20:37.400Z,99211.30
2018-04-19T12:23:06.450Z,99215.59
2018-04-19T12:25:34.800Z,99206.20
2018-04-19T12:28:03.851Z,99206.15
2018-04-19T12:30:32.115Z,99203.16
2018-04-19T12:33:00.408Z,99199.05
2018-04-19T12:35:28.680Z,99200.02
2018-04-19T12:37:56.972Z,99200.25
2018-04-19T12:40:25.259Z,99196.76
2018-04-19T12:42:53.547Z,99194.00
2018-04-19T12:45:21.829Z,99195.58
2018-04-19T12:47:50.104Z,99190.10
2018-04-19T12:50:19.153Z,99181.56
2018-04-19T12:52:47.424Z,99181.95
2018-04-19T12:55:15.717Z,99180.22
2018-04-19T12:57:44.764Z,99175.12
2018-04-19T13:00:13.817Z,99172.36
2018-04-19T13:02:42.094Z,99170.68
2018-04-19T13:05:11.892Z,99172.10
2018-04-19T13:07:40.172Z,99167.82
2018-04-19T13:10:08.459Z,99163.00
2018-04-19T13:12:37.485Z,99165.61
2018-04-19T13:15:06.533Z,99162.77
2018-04-19T13:17:34.820Z,99160.91
2018-04-19T13:20:03.104Z,99158.81
2018-04-19T13:22:31.441Z,99155.84
2018-04-19T13:24:59.680Z,99148.33
2018-04-19T13:27:28.712Z,99146.71
2018-04-19T13:29:57.001Z,99148.60
2018-04-19T13:32:25.269Z,99138.14
2018-04-19T13:34:53.556Z,99146.47
2018-04-19T13:37:21.823Z,99137.88
2018-04-19T13:39:50.122Z,99139.72
2018-04-19T13:42:18.401Z,99143.40
2018-04-19T13:44:46.695Z,99136.98
2018-04-19T13:47:14.967Z,99134.95
2018-04-19T13:49:43.263Z,99131.44
2018-04-19T13:52:12.301Z,99137.67
2018-04-19T13:54:40.589Z,99132.50
2018-04-19T13:57:08.865Z,99133.27
2018-04-19T13:59:37.172Z,99125.28
2018-04-19T14:02:05.483Z,99122.88
2018-04-19T14:04:33.767Z,99119.04
2018-04-19T14:07:02.060Z,99113.32
2018-04-19T14:09:30.355Z,99113.14
2018-04-19T14:11:58.663Z,99107.59
2018-04-19T14:14:27.228Z,99109.17
2018-04-19T14:16:55.507Z,99106.76
2018-04-19T14:19:23.798Z,99104.50
2018-04-19T14:21:52.105Z,99103.09
2018-04-19T14:24:20.380Z,99105.42
2018-04-19T14:26:48.648Z,99098.02
2018-04-19T14:29:16.940Z,99097.18
2018-04-19T14:31:45.971Z,99088.05
2018-04-19T14:34:14.259Z,99085.00
2018-04-19T14:36:42.542Z,99084.88
2018-04-19T14:39:10.839Z,99081.09
2018-04-19T14:41:39.883Z,99080.81
2018-04-19T14:44:08.940Z,99074.65
2018-04-19T14:46:37.207Z,99085.42
2018-04-19T14:49:06.250Z,99083.27
2018-04-19T14:51:34.537Z,99077.47
2018-04-19T14:54:02.812Z,99081.78
2018-04-19T14:56:31.114Z,99083.82
2018-04-19T14:59:00.163Z,99072.59
2018-04-19T15:01:28.452Z,99070.49
2018-04-19T15:03:57.488Z,99062.48
2018-04-19T15:06:26.537Z,99064.79
2018-04-19T15:08:54.801Z,99062.31
2018-04-19T15:11:23.064Z,99060.79
2018-04-19T15:13:51.353Z,99063.84
2018-04-19T15:16:19.617Z,99060.66
2018-04-19T15:18:47.907Z,99054.89
2018-04-19T15:21:16.172Z,99052.92
2018-04-19T15:23:44.476Z,99050.73
2018-04-19T15:26:12.740Z,99052.73
2018-04-19T15:28:41.061Z,99046.94
2018-04-19T15:31:09.340Z,99052.02
2018-04-19T15:33:37.633Z,99045.55
2018-04-19T15:36:05.916Z,99051.75
2018-04-19T15:38:34.211Z,99050.25
2018-04-19T15:41:02.495Z,99049.72
2018-04-19T15:43:30.769Z,99048.48
2018-04-19T15:45:59.083Z,99044.36
2018-04-19T15:48:27.358Z,99042.77
2018-04-19T15:50:55.630Z,99032.02
2018-04-19T15:53:23.911Z,99038.63
2018-04-19T15:55:52.193Z,99033.28
2018-04-19T15:58:20.480Z,99040.43
2018-04-19T16:00:48.795Z,99038.00
2018-04-19T16:03:17.088Z,99031.45
2018-04-19T16:05:45.400Z,99035.04
2018-04-19T16:08:13.675Z,99029.41
2018-04-19T16:10:41.964Z,99031.36
2018-04-19T16:13:11.056Z,99030.02
2018-04-19T16:15:39.345Z,99025.41
2018-04-19T16:18:08.387Z,99033.47
2018-04-19T16:20:36.700Z,99025.49
2018-04-19T16:23:04.977Z,99027.65
2018-04-19T16:25:33.250Z,99023.88
2018-04-19T16:28:01.541Z,99027.67
2018-04-19T16:30:30.580Z,99025.06
2018-04-19T16:32:58.880Z,99027.86
2018-04-19T16:35:27.158Z,99019.94
2018-04-19T16:37:55.460Z,99022.52
2018-04-19T16:40:24.544Z,99021.30
2018-04-19T16:42:52.836Z,99025.27
2018-04-19T16:45:21.892Z,99018.81
2018-04-19T16:47:50.193Z,99021.62
2018-04-19T16:50:18.480Z,99016.42
2018-04-19T16:52:47.533Z,99017.24
2018-04-19T16:55:15.843Z,99016.08
2018-04-19T16:57:44.110Z,99010.11
2018-04-19T17:00:12.386Z,99011.13
2018-04-19T17:02:40.677Z,99009.34
2018-04-19T17:05:09.733Z,99014.77
2018-04-19T17:07:38.016Z,99011.41
2018-04-19T17:10:06.324Z,99007.16
2018-04-19T17:12:35.371Z,99009.52
2018-04-19T17:15:03.648Z,99004.92
2018-04-19T17:17:31.921Z,99008.02
2018-04-19T17:20:00.216Z,99006.36
2018-04-19T17:22:28.513Z,98997.09
2018-04-19T17:24:56.796Z,98998.06
2018-04-19T17:27:25.084Z,98997.68
2018-04-19T17:29:54.164Z,98994.16
2018-04-19T17:32:22.472Z,98993.90
2018-04-19T17:34:50.751Z,98989.03
2018-04-19T17:37:19.033Z,98992.17
2018-04-19T17:39:47.329Z,98986.18
2018-04-19T17:42:15.596Z,98983.16
2018-04-19T17:44:43.895Z,98986.57
2018-04-19T17:47:12.166Z,98984.91
2018-04-19T17:49:40.464Z,98989.09
2018-04-19T17:52:08.731Z,98983.80
2018-04-19T17:54:37.016Z,98991.64
2018-04-19T17:57:06.088Z,98984.00
2018-04-19T17:59:34.374Z,98988.34
2018-04-19T18:02:02.638Z,98992.00
2018-04-19T18:04:30.939Z,98992.67
2018-04-19T18:06:59.220Z,98991.44
2018-04-19T18:09:27.483Z,98988.69
2018-04-19T18:11:55.767Z,98998.14
2018-04-19T18:14:24.041Z,98995.58
2018-04-19T18:16:52.423Z,98996.41
2018-04-19T18:19:20.653Z,98992.77
2018-04-19T18:21:48.925Z,98995.48
2018-04-19T18:24:17.215Z,98994.22
2018-04-19T18:26:45.497Z,98992.74
2018-04-19T18:29:13.855Z,98997.70
2018-04-19T18:31:42.157Z,98999.21
2018-04-19T18:34:10.428Z,99000.28
2018-04-19T18:36:38.709Z,99009.13
2018-04-19T18:39:06.976Z,99010.42
2018-04-19T18:41:35.284Z,99010.05
2018-04-19T18:44:03.579Z,99010.95
2018-04-19T18:46:31.930Z,99013.56
2018-04-19T18:49:00.193Z,99016.44
2018-04-19T18:51:28.522Z,99019.33
2018-04-19T18:53:57.652Z,99020.05
2018-04-19T18:56:26.202Z,99022.20
2018-04-19T18:58:54.597Z,99020.59
2018-04-19T19:01:23.721Z,99024.66
2018-04-19T19:03:53.696Z,99020.09
2018-04-19T19:06:22.110Z,99021.64
2018-04-19T19:08:50.440Z,99029.06
2018-04-19T19:11:19.184Z,99024.17
2018-04-19T19:13:48.240Z,99025.13
2018-04-19T19:16:17.381Z,99026.16
2018-04-19T19:19:06.395Z,99031.11
2018-04-19T19:21:34.877Z,99034.04
2018-04-19T19:24:03.866Z,99032.87
2018-04-19T19:26:32.323Z,99036.12
2018-04-19T19:29:03.430Z,99039.25
2018-04-19T19:31:32.688Z,99032.36
2018-04-19T19:34:02.797Z,99039.02
2018-04-19T19:36:33.592Z,99038.38
2018-04-19T19:39:03.553Z,99040.17
2018-04-19T19:41:33.547Z,99041.69
2018-04-19T19:44:03.433Z,99041.30
2018-04-19T19:46:33.361Z,99046.02
2018-04-19T19:49:03.158Z,99048.36
2018-04-19T19:51:33.072Z,99046.30
2018-04-19T19:54:02.896Z,99046.80
2018-04-19T19:56:32.921Z,99046.15
2018-04-19T19:59:02.210Z,99045.73
2018-04-19T20:01:33.242Z,99045.84
2018-04-19T20:04:03.150Z,99046.07
2018-04-19T20:06:32.923Z,99053.88
2018-04-19T20:09:02.209Z,99046.09
2018-04-19T20:11:31.496Z,99045.41
2018-04-19T20:14:00.848Z,99049.51
2018-04-19T20:16:30.038Z,99052.02
2018-04-19T20:18:59.316Z,99053.23
2018-04-19T20:21:29.370Z,99053.83
2018-04-19T20:23:59.292Z,99051.70
2018-04-19T20:26:28.473Z,99050.63
2018-04-19T20:28:56.947Z,99049.98
2018-04-19T20:31:26.239Z,99054.26
2018-04-19T20:33:54.535Z,99052.66
2018-04-19T20:36:22.975Z,99050.44
2018-04-19T20:38:52.162Z,99046.90
2018-04-19T20:41:20.482Z,99049.18
2018-04-19T20:43:50.275Z,99043.16
2018-04-19T20:46:18.609Z,99043.23
2018-04-19T20:48:46.929Z,99044.71
2018-04-19T20:51:16.024Z,99052.91
2018-04-19T20:53:45.082Z,99045.94
2018-04-19T20:56:13.351Z,99048.87
2018-04-19T20:58:41.644Z,99052.53
2018-04-19T21:01:09.941Z,99044.67
2018-04-19T21:03:38.280Z,99048.81
2018-04-19T21:06:06.551Z,99053.75
2018-04-19T21:08:34.840Z,99050.20
2018-04-19T21:11:03.108Z,99053.29
2018-04-19T21:13:31.386Z,99049.91
2018-04-19T21:15:59.676Z,99048.27
2018-04-19T21:18:27.947Z,99056.70
2018-04-19T21:20:56.240Z,99052.06
2018-04-19T21:23:24.516Z,99045.58
2018-04-19T21:25:52.804Z,99044.53
2018-04-19T21:28:21.128Z,99045.51
2018-04-19T21:30:49.479Z,99042.72
2018-04-19T21:33:17.780Z,99051.05
2018-04-19T21:35:46.079Z,99049.39
2018-04-19T21:38:14.344Z,99047.95
2018-04-19T21:40:42.670Z,99048.48
2018-04-19T21:43:11.712Z,99043.93
2018-04-19T21:45:40.010Z,99043.87
2018-04-19T21:48:08.288Z,99038.86
2018-04-19T21:50:36.556Z,99043.45
2018-04-19T21:53:04.844Z,99037.94
2018-04-19T21:55:33.131Z,99042.80
2018-04-19T21:58:01.432Z,99034.69
2018-04-19T22:00:30.521Z,99034.36
2018-04-19T22:02:58.792Z,99041.72
2018-04-19T22:05:27.096Z,99041.31
2018-04-19T22:07:56.143Z,99040.29
2018-04-19T22:10:24.444Z,99037.22
2018-04-19T22:12:53.488Z,99042.40
2018-04-19T22:15:21.756Z,99036.03
2018-04-19T22:17:50.048Z,99038.27
2018-04-19T22:20:18.355Z,99045.44
2018-04-19T22:22:46.645Z,99041.63
2018-04-19T22:25:14.966Z,99037.83
2018-04-19T22:27:43.976Z,99035.71
2018-04-19T22:30:12.277Z,99032.74
2018-04-19T22:32:40.614Z,99035.59
2018-04-19T22:35:08.937Z,99030.18
2018-04-19T22:37:37.241Z,99028.80
2018-04-19T22:40:06.279Z,99037.77
2018-04-19T22:42:34.568Z,99035.65
2018-04-19T22:45:02.874Z,99036.51
2018-04-19T22:47:31.143Z,99039.16
2018-04-19T22:49:59.423Z,99034.20
2018-04-19T22:52:27.720Z,99038.88
2018-04-19T22:54:56.767Z,99031.95
2018-04-19T22:57:25.049Z,99032.37
2018-04-19T22:59:53.345Z,99038.00
2018-04-19T23:02:21.623Z,99036.77
2018-04-19T23:04:49.897Z,99036.41
2018-04-19T23:07:18.181Z,99035.69
2018-04-19T23:09:47.230Z,99040.94
2018-04-19T23:12:15.521Z,99038.55
2018-04-19T23:14:43.807Z,99033.01
2018-04-19T23:17:12.096Z,99034.27
2018-04-19T23:19:40.391Z,99035.17
2018-04-19T23:22:09.535Z,99028.74
2018-04-19T23:24:37.823Z,99029.54
2018-04-19T23:27:06.111Z,99031.28
2018-04-19T23:29:34.424Z,99023.11
2018-04-19T23:32:02.717Z,99030.83
2018-04-19T23:34:31.038Z,99026.97
2018-04-19T23:36:59.333Z,99027.95
2018-04-19T23:39:27.663Z,99029.19
2018-04-19T23:41:55.930Z,99028.79
2018-04-19T23:44:24.226Z,99024.87
2018-04-19T23:46:52.503Z,99027.91
2018-04-19T23:49:20.793Z,99021.05
2018-04-19T23:51:49.108Z,99022.34
2018-04-19T23:54:18.163Z,99014.62
2018-04-19T23:56:46.436Z,99018.50
2018-04-19T23:59:14.710Z,99004.81
